Glade, Mississippi
Current Conditions -  °F | °C
As of 8:15 AM on Saturday 20 Dec 2014 (Local Time) from KPIB Reporting Station
Overcast Overcast  
Wind Chill: 40°   Ceiling: 600
Heat Index: 45°   Visibility: 7mi
Dew Point: 41°   Wind: 9mph
Humidity: 87%   Direction: 20°NNE
Pressure: 30.19"   Gusts: NA
Location:  31.6875°N, 89.1116°W
Report Text: KPIB 201415Z AUTO 02008KT 7SM OVC006 07/05 A3019 RMK AO1
Loading
Personal Weather Stations






























Interactive Weather Map New forecast layout! Learn more

10-Day Weather Forecast

Advertisements
Track Severe Weather on mobile